Wray, Colorado
Current Conditions -  °F | °C
As of 9:15 AM on Sunday 23 Nov 2014 (Local Time) from K2V5 Reporting Station
Clear Clear  
Wind Chill: 32°   Ceiling: Unl
Heat Index: 42°   Visibility: 10mi
Dew Point: 15°   Wind: 22mph
Humidity: 33%   Direction: 340°NNW
Pressure: 29.75"   Gusts: 31mph
Location:  40.08°N, 102.22°W
Report Text: K2V5 231615Z AUTO 34019G27KT 10SM CLR 05/M10 A2975 RMK AO2 T00531097
Loading
Personal Weather Stations






























Interactive Weather Map New forecast layout! Learn more

10-Day Weather Forecast

Advertisements
Track Severe Weather on mobile